METAR AND TAF INFORMATION
METAR FOR KSAF
KSAF 230353Z AUTO 14011G20KT 10SM CLR 21/08 A3029 RMK AO2 SLP157 T02060083
KSAF 230253Z AUTO 14005KT 10SM FEW085 22/08 A3027 RMK AO2 SLP153 T02170078 53007
KSAF 230153Z AUTO 10006KT 10SM CLR 24/07 A3025 RMK AO2 SLP146 T02390072
KSAF 230230Z 2303/2324 13008KT P6SM BKN090
FM231100 01008KT P6SM FEW100
FM231800 23008KT P6SM FEW100 SCT150
FM232200 13011KT P6SM VCSH SCT100 BKN150
PROB30 2322/2324 VRB18G30KT 6SM -TSRA BKN100CB

 AIRPORT MAP

 RUNWAY INFORMATION
Runway 02 Runway length 8342 ft Runway width 150 ft
Runway elevation 6274 ft Runway displaced threshold 0 ft Runway heading 35
Runway 20 Runway length 8342 ft Runway width 150 ft
Runway elevation 6348 ft Runway displaced threshold 0 ft Runway heading 215
Runway 10 Runway length 6300 ft Runway width 75 ft
Runway elevation 6281 ft Runway displaced threshold 0 ft Runway heading 112
Runway 28 Runway length 6300 ft Runway width 75 ft
Runway elevation 6297 ft Runway displaced threshold 0 ft Runway heading 292
Runway 15 Runway length 6307 ft Runway width 150 ft
Runway elevation 6317 ft Runway displaced threshold 0 ft Runway heading 167
Runway 33 Runway length 6307 ft Runway width 150 ft
Runway elevation 6271 ft Runway displaced threshold 0 ft Runway heading 347

 AIRPORT FREQUENCIES
Type ATIS Name ATIS Frequency 128.55 MHZ
Type CNTR Name ALBUQUERQU Frequency 132.8 MHZ
Type CTAF Name CTAF Frequency 119.5 MHZ
Type GND Name GND Frequency 121.7 MHZ
Type RDO Name ALBUQUERQU Frequency 122.2 MHZ
Type TWR Name TWR Frequency 119.5 MHZ
Type UNIC Name UNICOM Frequency 122.95 MHZ

 AIRPORT NEAR NAVIGATION AIDS

-